<?xml version='1.0' encoding='UTF-8'?><gpx version="1.1" creator="JPX - https://github.com/jenetics/jpx" xmlns="http://www.topografix.com/GPX/1/1"><trk><trkseg><trkpt lat="45.542116041300275" lon="10.198572544054208"><ele>140.83333333333334</ele><time>2026-04-24T15:18:20.999Z</time></trkpt><trkpt lat="45.54201840989687" lon="10.198564635781203"><ele>140.66666666666666</ele><time>2026-04-24T15:18:22.999Z</time></trkpt><trkpt lat="45.54196202169841" lon="10.198521419968497"><ele>140.5</ele><time>2026-04-24T15:18:23.999Z</time></trkpt><trkpt lat="45.54191373137537" lon="10.198463031785389"><ele>140.33333333333331</ele><time>2026-04-24T15:18:24.999Z</time></trkpt><trkpt lat="45.54188946751209" lon="10.19835866842294"><ele>140.16666666666666</ele><time>2026-04-24T15:18:26.999Z</time></trkpt><trkpt lat="45.541934026169585" lon="10.198175113161017"><ele>140.0</ele><time>2026-04-24T15:18:28.999Z</time></trkpt><trkpt lat="45.54195498651136" lon="10.198036640768636"><ele>140.0</ele><time>2026-04-24T15:18:29.999Z</time></trkpt><trkpt lat="45.541973362129774" lon="10.197906057311755"><ele>140.0</ele><time>2026-04-24T15:18:30.999Z</time></trkpt><trkpt lat="45.54199368409941" lon="10.197761642417273"><ele>140.0</ele><time>2026-04-24T15:18:31.999Z</time></trkpt><trkpt lat="45.542005103236605" lon="10.197599293298468"><ele>140.0</ele><time>2026-04-24T15:18:32.999Z</time></trkpt><trkpt lat="45.54203811107355" lon="10.197441027179279"><ele>140.0</ele><time>2026-04-24T15:18:33.999Z</time></trkpt><trkpt lat="45.54205501234154" lon="10.197258218980709"><ele>140.75</ele><time>2026-04-24T15:18:34.999Z</time></trkpt><trkpt lat="45.54206592659155" lon="10.19706889003966"><ele>141.5</ele><time>2026-04-24T15:18:35.999Z</time></trkpt><trkpt lat="45.54206770463395" lon="10.196873810811143"><ele>142.25</ele><time>2026-04-24T15:18:36.999Z</time></trkpt><trkpt lat="45.54207283390998" lon="10.196669995716674"><ele>143.0</ele><time>2026-04-24T15:18:37.999Z</time></trkpt><trkpt lat="45.54208182218342" lon="10.196450589958882"><ele>143.33333333333331</ele><time>2026-04-24T15:18:38.999Z</time></trkpt><trkpt lat="45.54209204381781" lon="10.196225944080918"><ele>143.66666666666666</ele><time>2026-04-24T15:18:39.999Z</time></trkpt><trkpt lat="45.54209511739179" lon="10.196001900383749"><ele>144.0</ele><time>2026-04-24T15:18:40.999Z</time></trkpt><trkpt lat="45.54210106351887" lon="10.195808732365053"><ele>143.6</ele><time>2026-04-24T15:18:41.999Z</time></trkpt><trkpt lat="45.542106926078304" lon="10.195637472567043"><ele>143.2</ele><time>2026-04-24T15:18:42.999Z</time></trkpt><trkpt lat="45.542116701766105" lon="10.195486165954618"><ele>142.79999999999998</ele><time>2026-04-24T15:18:43.999Z</time></trkpt><trkpt lat="45.54212786006195" lon="10.195346118904684"><ele>142.4</ele><time>2026-04-24T15:18:44.999Z</time></trkpt><trkpt lat="45.542135678426675" lon="10.195221811628198"><ele>142.0</ele><time>2026-04-24T15:18:45.999Z</time></trkpt><trkpt lat="45.54214211723691" lon="10.195112048255615"><ele>142.0</ele><time>2026-04-24T15:18:46.999Z</time></trkpt><trkpt lat="45.54214966128544" lon="10.195008923046766"><ele>142.0</ele><time>2026-04-24T15:18:47.999Z</time></trkpt><trkpt lat="45.542165354312964" lon="10.19491667218059"><ele>142.0</ele><time>2026-04-24T15:18:48.999Z</time></trkpt><trkpt lat="45.54219017008352" lon="10.194781500040747"><ele>142.0</ele><time>2026-04-24T15:18:50.999Z</time></trkpt><trkpt lat="45.54220081801744" lon="10.19469007618156"><ele>142.0</ele><time>2026-04-24T15:18:57.999Z</time></trkpt><trkpt lat="45.54217675766595" lon="10.19479851304498"><ele>142.0</ele><time>2026-04-24T15:19:45Z</time></trkpt><trkpt lat="45.542141842856" lon="10.194984896453288"><ele>142.0</ele><time>2026-04-24T15:19:47Z</time></trkpt><trkpt lat="45.542131904983705" lon="10.195105980237424"><ele>142.0</ele><time>2026-04-24T15:19:48Z</time></trkpt><trkpt lat="45.542122974148796" lon="10.19523202854744"><ele>142.0</ele><time>2026-04-24T15:19:49Z</time></trkpt><trkpt lat="45.54211607801512" lon="10.195372406302157"><ele>142.0</ele><time>2026-04-24T15:19:50Z</time></trkpt><trkpt lat="45.542104192529756" lon="10.19551567436542"><ele>142.0</ele><time>2026-04-24T15:19:51Z</time></trkpt><trkpt lat="45.54209624908624" lon="10.195656978082129"><ele>142.4</ele><time>2026-04-24T15:19:52Z</time></trkpt><trkpt lat="45.542069437940235" lon="10.195797024260315"><ele>142.79999999999998</ele><time>2026-04-24T15:19:53Z</time></trkpt><trkpt lat="45.542065428311275" lon="10.195947438832007"><ele>143.2</ele><time>2026-04-24T15:19:54Z</time></trkpt><trkpt lat="45.542074050102194" lon="10.1961114520126"><ele>143.6</ele><time>2026-04-24T15:19:55Z</time></trkpt><trkpt lat="45.542070544027965" lon="10.196278745017999"><ele>144.0</ele><time>2026-04-24T15:19:56Z</time></trkpt><trkpt lat="45.54206270667081" lon="10.196426018075647"><ele>143.8</ele><time>2026-04-24T15:19:57Z</time></trkpt><trkpt lat="45.542052618144" lon="10.196555039693049"><ele>143.60000000000002</ele><time>2026-04-24T15:19:58Z</time></trkpt><trkpt lat="45.54205466529452" lon="10.196693211348256"><ele>143.4</ele><time>2026-04-24T15:19:59Z</time></trkpt><trkpt lat="45.54205189870017" lon="10.196825481640367"><ele>143.20000000000002</ele><time>2026-04-24T15:20:00Z</time></trkpt><trkpt lat="45.542042248403796" lon="10.196963771304208"><ele>143.0</ele><time>2026-04-24T15:20:01Z</time></trkpt><trkpt lat="45.54203688054506" lon="10.197101944396813"><ele>142.6</ele><time>2026-04-24T15:20:02Z</time></trkpt><trkpt lat="45.542032108573515" lon="10.197242104532492"><ele>142.20000000000002</ele><time>2026-04-24T15:20:03Z</time></trkpt><trkpt lat="45.54202531989551" lon="10.197402655027311"><ele>141.8</ele><time>2026-04-24T15:20:04Z</time></trkpt><trkpt lat="45.541999877541116" lon="10.197561165487196"><ele>141.4</ele><time>2026-04-24T15:20:05Z</time></trkpt><trkpt lat="45.541973171704555" lon="10.197715883956683"><ele>141.0</ele><time>2026-04-24T15:20:06Z</time></trkpt><trkpt lat="45.5419546509192" lon="10.197873257021064"><ele>140.8</ele><time>2026-04-24T15:20:07Z</time></trkpt><trkpt lat="45.54193560238329" lon="10.198028348614143"><ele>140.6</ele><time>2026-04-24T15:20:08Z</time></trkpt><trkpt lat="45.5419139329161" lon="10.198173710487596"><ele>140.4</ele><time>2026-04-24T15:20:09Z</time></trkpt><trkpt lat="45.541893164121404" lon="10.19831743183598"><ele>140.2</ele><time>2026-04-24T15:20:10Z</time></trkpt><trkpt lat="45.54186831374027" lon="10.19846939801733"><ele>140.0</ele><time>2026-04-24T15:20:11Z</time></trkpt><trkpt lat="45.54182741883602" lon="10.198618028328292"><ele>140.0</ele><time>2026-04-24T15:20:12Z</time></trkpt><trkpt lat="45.54180230341085" lon="10.198767033944508"><ele>140.0</ele><time>2026-04-24T15:20:13Z</time></trkpt><trkpt lat="45.54177664570115" lon="10.19891925672144"><ele>140.0</ele><time>2026-04-24T15:20:14Z</time></trkpt><trkpt lat="45.541766754871645" lon="10.199074840935554"><ele>140.0</ele><time>2026-04-24T15:20:15Z</time></trkpt><trkpt lat="45.54173246788131" lon="10.199218710961663"><ele>140.0</ele><time>2026-04-24T15:20:16Z</time></trkpt><trkpt lat="45.54171327767828" lon="10.199363702069896"><ele>140.0</ele><time>2026-04-24T15:20:17Z</time></trkpt><trkpt lat="45.54169042112298" lon="10.199498686066624"><ele>140.0</ele><time>2026-04-24T15:20:18Z</time></trkpt><trkpt lat="45.54166737725633" lon="10.199609079600402"><ele>140.0</ele><time>2026-04-24T15:20:19Z</time></trkpt><trkpt lat="45.54165369090059" lon="10.199705729754928"><ele>140.0</ele><time>2026-04-24T15:20:20Z</time></trkpt><trkpt lat="45.5416294860035" lon="10.199812540637083"><ele>140.0</ele><time>2026-04-24T15:20:22Z</time></trkpt><trkpt lat="45.5416091895321" lon="10.199909510334509"><ele>140.0</ele><time>2026-04-24T15:20:31Z</time></trkpt><trkpt lat="45.54172673020252" lon="10.199971373289497"><ele>140.4</ele><time>2026-04-24T15:20:32Z</time></trkpt><trkpt lat="45.54179801343474" lon="10.200013408975453"><ele>140.8</ele><time>2026-04-24T15:20:33Z</time></trkpt><trkpt lat="45.541888341124384" lon="10.200048602915592"><ele>141.2</ele><time>2026-04-24T15:20:34Z</time></trkpt><trkpt lat="45.54198274692772" lon="10.200089002999924"><ele>141.6</ele><time>2026-04-24T15:20:35Z</time></trkpt><trkpt lat="45.542085514169855" lon="10.200133959283978"><ele>142.0</ele><time>2026-04-24T15:20:36Z</time></trkpt><trkpt lat="45.542186173554235" lon="10.200171839283794"><ele>142.2</ele><time>2026-04-24T15:20:37Z</time></trkpt><trkpt lat="45.542271161648664" lon="10.200216208558116"><ele>142.39999999999998</ele><time>2026-04-24T15:20:38Z</time></trkpt><trkpt lat="45.54235501632398" lon="10.20025961839764"><ele>142.60000000000002</ele><time>2026-04-24T15:20:39Z</time></trkpt><trkpt lat="45.54243981505852" lon="10.200293712712988"><ele>142.8</ele><time>2026-04-24T15:20:40Z</time></trkpt><trkpt lat="45.54253507044663" lon="10.200334825670426"><ele>143.0</ele><time>2026-04-24T15:20:41Z</time></trkpt><trkpt lat="45.54262619718968" lon="10.200381152431415"><ele>143.0</ele><time>2026-04-24T15:20:42Z</time></trkpt><trkpt lat="45.54272182578851" lon="10.200429207604362"><ele>143.0</ele><time>2026-04-24T15:20:43Z</time></trkpt><trkpt lat="45.542821770187054" lon="10.200476268083525"><ele>143.0</ele><time>2026-04-24T15:20:44Z</time></trkpt><trkpt lat="45.542918501426776" lon="10.200524580409379"><ele>143.0</ele><time>2026-04-24T15:20:45Z</time></trkpt><trkpt lat="45.543018086390134" lon="10.20057629858614"><ele>143.0</ele><time>2026-04-24T15:20:46Z</time></trkpt><trkpt lat="45.543120081440975" lon="10.200626349048271"><ele>143.20000000000002</ele><time>2026-04-24T15:20:47Z</time></trkpt><trkpt lat="45.54322100822256" lon="10.200666583276025"><ele>143.4</ele><time>2026-04-24T15:20:48Z</time></trkpt><trkpt lat="45.54332609548169" lon="10.2007245368366"><ele>143.60000000000002</ele><time>2026-04-24T15:20:49Z</time></trkpt><trkpt lat="45.54343193023747" lon="10.200775706661254"><ele>143.8</ele><time>2026-04-24T15:20:50Z</time></trkpt><trkpt lat="45.54352813867017" lon="10.200822997531453"><ele>144.0</ele><time>2026-04-24T15:20:51Z</time></trkpt><trkpt lat="45.54361526541616" lon="10.200859316544303"><ele>144.0</ele><time>2026-04-24T15:20:52Z</time></trkpt><trkpt lat="45.54369109596918" lon="10.200895018402528"><ele>144.0</ele><time>2026-04-24T15:20:53Z</time></trkpt><trkpt lat="45.543761955309975" lon="10.200930306347704"><ele>144.0</ele><time>2026-04-24T15:20:54Z</time></trkpt><trkpt lat="45.54382159162896" lon="10.200971375820968"><ele>144.0</ele><time>2026-04-24T15:20:55Z</time></trkpt><trkpt lat="45.543894956816864" lon="10.201043468660432"><ele>144.0</ele><time>2026-04-24T15:20:57Z</time></trkpt><trkpt lat="45.54396226672562" lon="10.201152998279694"><ele>144.0</ele><time>2026-04-24T15:21:00Z</time></trkpt><trkpt lat="45.54411336034185" lon="10.201144904767613"><ele>144.0</ele><time>2026-04-24T15:21:03Z</time></trkpt><trkpt lat="45.54414480342762" lon="10.200948974342685"><ele>144.0</ele><time>2026-04-24T15:21:05Z</time></trkpt><trkpt lat="45.544109466777655" lon="10.200785035925296"><ele>144.0</ele><time>2026-04-24T15:21:06Z</time></trkpt><trkpt lat="45.54412128927676" lon="10.200631719810197"><ele>144.0</ele><time>2026-04-24T15:21:07Z</time></trkpt><trkpt lat="45.54414068211732" lon="10.200515725485385"><ele>144.33333333333334</ele><time>2026-04-24T15:21:08Z</time></trkpt><trkpt lat="45.54416177673249" lon="10.200412553694532"><ele>144.66666666666666</ele><time>2026-04-24T15:21:11Z</time></trkpt><trkpt lat="45.544172240809" lon="10.20030123844047"><ele>145.0</ele><time>2026-04-24T15:21:16Z</time></trkpt><trkpt lat="45.544196681252004" lon="10.20014499725012"><ele>145.33333333333331</ele><time>2026-04-24T15:21:18Z</time></trkpt><trkpt lat="45.544214829653825" lon="10.200046151306088"><ele>145.66666666666666</ele><time>2026-04-24T15:21:19Z</time></trkpt><trkpt lat="45.54423110060282" lon="10.199951347376402"><ele>146.0</ele><time>2026-04-24T15:21:20Z</time></trkpt><trkpt lat="45.544255492110324" lon="10.19983496668057"><ele>146.0</ele><time>2026-04-24T15:21:21Z</time></trkpt><trkpt lat="45.54428341389227" lon="10.199698604478009"><ele>146.0</ele><time>2026-04-24T15:21:22Z</time></trkpt><trkpt lat="45.54432158006078" lon="10.199563288493199"><ele>146.0</ele><time>2026-04-24T15:21:23Z</time></trkpt><trkpt lat="45.54435336342026" lon="10.199424234262121"><ele>146.0</ele><time>2026-04-24T15:21:24Z</time></trkpt><trkpt lat="45.544387929535546" lon="10.19927530750933"><ele>146.0</ele><time>2026-04-24T15:21:25Z</time></trkpt><trkpt lat="45.54442462178725" lon="10.199117220251177"><ele>146.2</ele><time>2026-04-24T15:21:26Z</time></trkpt><trkpt lat="45.544457543949655" lon="10.19897424102613"><ele>146.39999999999998</ele><time>2026-04-24T15:21:27Z</time></trkpt><trkpt lat="45.54448566724591" lon="10.19885153234406"><ele>146.6</ele><time>2026-04-24T15:21:28Z</time></trkpt><trkpt lat="45.544512322095414" lon="10.198735230854972"><ele>146.79999999999998</ele><time>2026-04-24T15:21:29Z</time></trkpt><trkpt lat="45.54453073100147" lon="10.198603357759882"><ele>147.0</ele><time>2026-04-24T15:21:30Z</time></trkpt><trkpt lat="45.5445620133382" lon="10.198462108141019"><ele>147.0</ele><time>2026-04-24T15:21:31Z</time></trkpt><trkpt lat="45.54459630787741" lon="10.198300180379437"><ele>147.0</ele><time>2026-04-24T15:21:32Z</time></trkpt><trkpt lat="45.54463901035151" lon="10.198131363514486"><ele>147.0</ele><time>2026-04-24T15:21:33Z</time></trkpt><trkpt lat="45.54468686846591" lon="10.197956655875467"><ele>147.0</ele><time>2026-04-24T15:21:34Z</time></trkpt><trkpt lat="45.544720995556794" lon="10.197771530160384"><ele>146.5</ele><time>2026-04-24T15:21:35Z</time></trkpt><trkpt lat="45.5447591708722" lon="10.197580608708932"><ele>146.0</ele><time>2026-04-24T15:21:36Z</time></trkpt><trkpt lat="45.54479766411142" lon="10.197375038190724"><ele>145.5</ele><time>2026-04-24T15:21:37Z</time></trkpt><trkpt lat="45.5448383891785" lon="10.197165062888342"><ele>145.0</ele><time>2026-04-24T15:21:38Z</time></trkpt><trkpt lat="45.54487804257848" lon="10.196961469661222"><ele>145.0</ele><time>2026-04-24T15:21:39Z</time></trkpt><trkpt lat="45.5449193226792" lon="10.196775772778533"><ele>145.0</ele><time>2026-04-24T15:21:40Z</time></trkpt><trkpt lat="45.544955146875886" lon="10.196606742636737"><ele>145.0</ele><time>2026-04-24T15:21:41Z</time></trkpt><trkpt lat="45.544988545478205" lon="10.196447142382372"><ele>145.0</ele><time>2026-04-24T15:21:42Z</time></trkpt><trkpt lat="45.54502161882798" lon="10.196290464719503"><ele>145.0</ele><time>2026-04-24T15:21:43Z</time></trkpt><trkpt lat="45.545062624827544" lon="10.196125323955577"><ele>145.0</ele><time>2026-04-24T15:21:44Z</time></trkpt><trkpt lat="45.54509557185398" lon="10.195946077741068"><ele>145.0</ele><time>2026-04-24T15:21:45Z</time></trkpt><trkpt lat="45.5451319555499" lon="10.195760603799885"><ele>145.0</ele><time>2026-04-24T15:21:46Z</time></trkpt><trkpt lat="45.54517221275993" lon="10.19556838357892"><ele>145.0</ele><time>2026-04-24T15:21:47Z</time></trkpt><trkpt lat="45.54521000647474" lon="10.195372751785335"><ele>145.0</ele><time>2026-04-24T15:21:48Z</time></trkpt><trkpt lat="45.5452477602636" lon="10.19517321530057"><ele>145.0</ele><time>2026-04-24T15:21:49Z</time></trkpt><trkpt lat="45.54528849291849" lon="10.194995794323702"><ele>145.0</ele><time>2026-04-24T15:21:50Z</time></trkpt><trkpt lat="45.54532551017086" lon="10.194836372873521"><ele>144.8</ele><time>2026-04-24T15:21:51Z</time></trkpt><trkpt lat="45.54535406049315" lon="10.194697194567858"><ele>144.6</ele><time>2026-04-24T15:21:52Z</time></trkpt><trkpt lat="45.54538156075673" lon="10.19456066636138"><ele>144.4</ele><time>2026-04-24T15:21:53Z</time></trkpt><trkpt lat="45.545411720020304" lon="10.194430617479476"><ele>144.2</ele><time>2026-04-24T15:21:54Z</time></trkpt><trkpt lat="45.545439106791136" lon="10.19430165554"><ele>144.0</ele><time>2026-04-24T15:21:55Z</time></trkpt><trkpt lat="45.54546699168244" lon="10.194177054261683"><ele>144.33333333333334</ele><time>2026-04-24T15:21:56Z</time></trkpt><trkpt lat="45.54549570447195" lon="10.19403700384095"><ele>144.66666666666666</ele><time>2026-04-24T15:21:57Z</time></trkpt><trkpt lat="45.545523774173674" lon="10.19390631635946"><ele>145.0</ele><time>2026-04-24T15:21:58Z</time></trkpt><trkpt lat="45.5455365475552" lon="10.193805266901471"><ele>145.33333333333331</ele><time>2026-04-24T15:21:59Z</time></trkpt><trkpt lat="45.54556197671348" lon="10.193652224179031"><ele>145.66666666666666</ele><time>2026-04-24T15:22:01Z</time></trkpt><trkpt lat="45.545578140943455" lon="10.193557487572784"><ele>146.0</ele><time>2026-04-24T15:22:02Z</time></trkpt><trkpt lat="45.54560354347522" lon="10.193408606500613"><ele>146.0</ele><time>2026-04-24T15:22:04Z</time></trkpt><trkpt lat="45.54561129674214" lon="10.19329898260148"><ele>146.0</ele><time>2026-04-24T15:22:06Z</time></trkpt><trkpt lat="45.54564104452949" lon="10.193172459769906"><ele>146.0</ele><time>2026-04-24T15:22:09Z</time></trkpt><trkpt lat="45.54565381739898" lon="10.193069210886694"><ele>146.0</ele><time>2026-04-24T15:22:11Z</time></trkpt><trkpt lat="45.54567056121592" lon="10.192963028427624"><ele>146.0</ele><time>2026-04-24T15:22:13Z</time></trkpt><trkpt lat="45.54569319230547" lon="10.192820733010807"><ele>146.0</ele><time>2026-04-24T15:22:15Z</time></trkpt><trkpt lat="45.54571930093809" lon="10.192733771512247"><ele>146.0</ele><time>2026-04-24T15:22:16Z</time></trkpt><trkpt lat="45.54575626979116" lon="10.192560314621232"><ele>146.0</ele><time>2026-04-24T15:22:18Z</time></trkpt><trkpt lat="45.545775027158406" lon="10.192473242602793"><ele>146.0</ele><time>2026-04-24T15:22:19Z</time></trkpt><trkpt lat="45.54581274205082" lon="10.192312328482275"><ele>146.0</ele><time>2026-04-24T15:22:21Z</time></trkpt><trkpt lat="45.545852297733916" lon="10.192141542194578"><ele>146.0</ele><time>2026-04-24T15:22:23Z</time></trkpt><trkpt lat="45.54587201997705" lon="10.1920531697657"><ele>145.75</ele><time>2026-04-24T15:22:24Z</time></trkpt><trkpt lat="45.545910172052714" lon="10.191882215961048"><ele>145.5</ele><time>2026-04-24T15:22:26Z</time></trkpt><trkpt lat="45.54594271590704" lon="10.191712808348314"><ele>145.25</ele><time>2026-04-24T15:22:28Z</time></trkpt><trkpt lat="45.545972885867336" lon="10.19155153315082"><ele>145.0</ele><time>2026-04-24T15:22:30Z</time></trkpt><trkpt lat="45.54599637089923" lon="10.19140699046626"><ele>144.66666666666669</ele><time>2026-04-24T15:22:32Z</time></trkpt><trkpt lat="45.54600777441016" lon="10.191298792192383"><ele>144.33333333333334</ele><time>2026-04-24T15:22:34Z</time></trkpt><trkpt lat="45.54603097980542" lon="10.191168366281556"><ele>144.0</ele><time>2026-04-24T15:22:48Z</time></trkpt><trkpt lat="45.54603120431122" lon="10.191066411737276"><ele>143.66666666666666</ele><time>2026-04-24T15:22:49Z</time></trkpt><trkpt lat="45.54605253256569" lon="10.190928448623227"><ele>143.33333333333331</ele><time>2026-04-24T15:22:51Z</time></trkpt><trkpt lat="45.546064209278676" lon="10.190829154327549"><ele>143.0</ele><time>2026-04-24T15:22:53Z</time></trkpt><trkpt lat="45.54607338271856" lon="10.19072949640769"><ele>143.0</ele><time>2026-04-24T15:22:55Z</time></trkpt><trkpt lat="45.54609099962137" lon="10.190616986620565"><ele>143.0</ele><time>2026-04-24T15:22:59Z</time></trkpt><trkpt lat="45.546097431297014" lon="10.190511415866474"><ele>143.0</ele><time>2026-04-24T15:23:01Z</time></trkpt><trkpt lat="45.54611465898114" lon="10.190411998752635"><ele>143.0</ele><time>2026-04-24T15:23:03Z</time></trkpt><trkpt lat="45.54612341790065" lon="10.190301679385898"><ele>143.0</ele><time>2026-04-24T15:23:05Z</time></trkpt><trkpt lat="45.54613831411811" lon="10.190187639219106"><ele>143.0</ele><time>2026-04-24T15:23:07Z</time></trkpt><trkpt lat="45.54615458537238" lon="10.190059395658718"><ele>143.0</ele><time>2026-04-24T15:23:09Z</time></trkpt><trkpt lat="45.5461716766767" lon="10.189933610752638"><ele>143.0</ele><time>2026-04-24T15:23:11Z</time></trkpt><trkpt lat="45.54617816780084" lon="10.189842657339668"><ele>143.0</ele><time>2026-04-24T15:23:15Z</time></trkpt><trkpt lat="45.54618647311837" lon="10.189726435069856"><ele>143.0</ele><time>2026-04-24T15:23:21Z</time></trkpt><trkpt lat="45.546197303015425" lon="10.189605572031537"><ele>143.0</ele><time>2026-04-24T15:23:24Z</time></trkpt><trkpt lat="45.54621408906928" lon="10.189464864167405"><ele>143.0</ele><time>2026-04-24T15:23:29Z</time></trkpt><trkpt lat="45.54623124086864" lon="10.189325021270847"><ele>143.0</ele><time>2026-04-24T15:23:31Z</time></trkpt><trkpt lat="45.54624583643446" lon="10.18922187275077"><ele>143.0</ele><time>2026-04-24T15:23:33Z</time></trkpt><trkpt lat="45.54625273274656" lon="10.189123071910933"><ele>143.0</ele><time>2026-04-24T15:23:35Z</time></trkpt><trkpt lat="45.546263688573006" lon="10.188995930743255"><ele>143.0</ele><time>2026-04-24T15:23:37Z</time></trkpt><trkpt lat="45.54628086509258" lon="10.18884551686806"><ele>143.0</ele><time>2026-04-24T15:23:39Z</time></trkpt><trkpt lat="45.546301892724166" lon="10.188688043162399"><ele>143.0</ele><time>2026-04-24T15:23:41Z</time></trkpt><trkpt lat="45.54632573348915" lon="10.188563483768908"><ele>143.0</ele><time>2026-04-24T15:23:43Z</time></trkpt><trkpt lat="45.54634851054703" lon="10.188429117933865"><ele>143.0</ele><time>2026-04-24T15:23:45Z</time></trkpt><trkpt lat="45.54636493343961" lon="10.188318283241529"><ele>143.0</ele><time>2026-04-24T15:23:46Z</time></trkpt><trkpt lat="45.54638627382221" lon="10.188177330085205"><ele>143.0</ele><time>2026-04-24T15:23:48Z</time></trkpt><trkpt lat="45.54639704730313" lon="10.188028014419128"><ele>143.0</ele><time>2026-04-24T15:23:50Z</time></trkpt><trkpt lat="45.54640759123546" lon="10.187887572924868"><ele>143.0</ele><time>2026-04-24T15:23:52Z</time></trkpt><trkpt lat="45.54642773606102" lon="10.187738493589542"><ele>143.0</ele><time>2026-04-24T15:23:54Z</time></trkpt><trkpt lat="45.5464530548094" lon="10.187583582151184"><ele>143.0</ele><time>2026-04-24T15:23:56Z</time></trkpt><trkpt lat="45.54648544932905" lon="10.187421803619022"><ele>143.0</ele><time>2026-04-24T15:23:58Z</time></trkpt><trkpt lat="45.54652069891225" lon="10.187264288298277"><ele>143.0</ele><time>2026-04-24T15:24:00Z</time></trkpt><trkpt lat="45.54655412767627" lon="10.187097152015845"><ele>143.0</ele><time>2026-04-24T15:24:02Z</time></trkpt><trkpt lat="45.54659945565233" lon="10.18693507409092"><ele>143.0</ele><time>2026-04-24T15:24:04Z</time></trkpt><trkpt lat="45.54662639052021" lon="10.186810378767854"><ele>143.0</ele><time>2026-04-24T15:24:06Z</time></trkpt><trkpt lat="45.54668378724974" lon="10.186709083558483"><ele>143.0</ele><time>2026-04-24T15:24:10Z</time></trkpt><trkpt lat="45.546750052406026" lon="10.186690450449706"><ele>143.0</ele><time>2026-04-24T15:24:12Z</time></trkpt><trkpt lat="45.54679979905046" lon="10.186624510098557"><ele>143.0</ele><time>2026-04-24T15:24:29Z</time></trkpt><trkpt lat="45.54676214636211" lon="10.186423968937786"><ele>143.0</ele><time>2026-04-24T15:24:33Z</time></trkpt><trkpt lat="45.5467659999535" lon="10.186323984662481"><ele>143.0</ele><time>2026-04-24T15:24:35Z</time></trkpt><trkpt lat="45.54680409775528" lon="10.186175947703127"><ele>143.0</ele><time>2026-04-24T15:24:37Z</time></trkpt><trkpt lat="45.546841945751105" lon="10.186044801148475"><ele>143.20000000000002</ele><time>2026-04-24T15:24:39Z</time></trkpt><trkpt lat="45.546892890997015" lon="10.185961236869714"><ele>143.4</ele><time>2026-04-24T15:24:41Z</time></trkpt><trkpt lat="45.546939362388876" lon="10.185850505997275"><ele>143.60000000000002</ele><time>2026-04-24T15:24:44Z</time></trkpt><trkpt lat="45.54693286560728" lon="10.185721405914723"><ele>143.8</ele><time>2026-04-24T15:24:48Z</time></trkpt><trkpt lat="45.54691675833055" lon="10.185562228592788"><ele>144.0</ele><time>2026-04-24T15:24:50Z</time></trkpt><trkpt lat="45.54694719494814" lon="10.185455039225284"><ele>144.2</ele><time>2026-04-24T15:24:51Z</time></trkpt><trkpt lat="45.54698227989802" lon="10.185322091801423"><ele>144.4</ele><time>2026-04-24T15:24:52Z</time></trkpt><trkpt lat="45.54702053792482" lon="10.185160878456845"><ele>144.6</ele><time>2026-04-24T15:24:53Z</time></trkpt><trkpt lat="45.547045769386216" lon="10.185034339778982"><ele>144.8</ele><time>2026-04-24T15:24:54Z</time></trkpt><trkpt lat="45.547068877578475" lon="10.184928011612932"><ele>145.0</ele><time>2026-04-24T15:24:55Z</time></trkpt><trkpt lat="45.54708758210707" lon="10.18481425666106"><ele>144.4</ele><time>2026-04-24T15:24:57Z</time></trkpt><trkpt lat="45.547124275303005" lon="10.184655477262652"><ele>143.8</ele><time>2026-04-24T15:24:59Z</time></trkpt><trkpt lat="45.547157635480694" lon="10.184513613303112"><ele>143.2</ele><time>2026-04-24T15:25:00Z</time></trkpt><trkpt lat="45.547201801460616" lon="10.184363348935626"><ele>142.6</ele><time>2026-04-24T15:25:01Z</time></trkpt><trkpt lat="45.547232515382426" lon="10.184265468160904"><ele>142.0</ele><time>2026-04-24T15:25:02Z</time></trkpt><trkpt lat="45.54725582614328" lon="10.18412856427208"><ele>142.0</ele><time>2026-04-24T15:25:05Z</time></trkpt><trkpt lat="45.547291117928296" lon="10.18403534303067"><ele>142.0</ele><time>2026-04-24T15:25:06Z</time></trkpt><trkpt lat="45.547322759894485" lon="10.183902816871198"><ele>142.0</ele><time>2026-04-24T15:25:07Z</time></trkpt><trkpt lat="45.547335292586865" lon="10.183793808126035"><ele>142.0</ele><time>2026-04-24T15:25:08Z</time></trkpt><trkpt lat="45.547374960881946" lon="10.183656300521728"><ele>142.0</ele><time>2026-04-24T15:25:10Z</time></trkpt><trkpt lat="45.54745114513981" lon="10.183573539109952"><ele>142.0</ele><time>2026-04-24T15:25:12Z</time></trkpt><trkpt lat="45.54753202950611" lon="10.18356293587207"><ele>142.16666666666669</ele><time>2026-04-24T15:25:13Z</time></trkpt><trkpt lat="45.54761586181476" lon="10.183440905013251"><ele>142.33333333333334</ele><time>2026-04-24T15:25:15Z</time></trkpt><trkpt lat="45.54763718315462" lon="10.183350401814222"><ele>142.5</ele><time>2026-04-24T15:25:16Z</time></trkpt><trkpt lat="45.54758966384545" lon="10.18323034058751"><ele>142.66666666666666</ele><time>2026-04-24T15:25:17Z</time></trkpt><trkpt lat="45.54754901119423" lon="10.18315133438123"><ele>142.83333333333331</ele><time>2026-04-24T15:25:18Z</time></trkpt><trkpt lat="45.54750752575292" lon="10.18304255789158"><ele>143.0</ele><time>2026-04-24T15:25:20Z</time></trkpt><trkpt lat="45.54747983616882" lon="10.182888882238364"><ele>142.6</ele><time>2026-04-24T15:25:23Z</time></trkpt><trkpt lat="45.54745672963959" lon="10.18278098878736"><ele>142.20000000000002</ele><time>2026-04-24T15:25:24Z</time></trkpt><trkpt lat="45.547426966184574" lon="10.182637785111485"><ele>141.8</ele><time>2026-04-24T15:25:25Z</time></trkpt><trkpt lat="45.54739712172196" lon="10.182494026744857"><ele>141.4</ele><time>2026-04-24T15:25:26Z</time></trkpt><trkpt lat="45.54737469465518" lon="10.182356593106531"><ele>141.0</ele><time>2026-04-24T15:25:27Z</time></trkpt><trkpt lat="45.547352871551865" lon="10.182228947768337"><ele>141.0</ele><time>2026-04-24T15:25:28Z</time></trkpt><trkpt lat="45.547331939028034" lon="10.182113785561002"><ele>141.0</ele><time>2026-04-24T15:25:29Z</time></trkpt><trkpt lat="45.54731379529252" lon="10.182013278661225"><ele>141.0</ele><time>2026-04-24T15:25:30Z</time></trkpt><trkpt lat="45.54729760112866" lon="10.181925251789771"><ele>141.0</ele><time>2026-04-24T15:25:31Z</time></trkpt><trkpt lat="45.54728166526312" lon="10.181835002509406"><ele>141.0</ele><time>2026-04-24T15:25:32Z</time></trkpt><trkpt lat="45.547253727920236" lon="10.181677566049407"><ele>141.0</ele><time>2026-04-24T15:25:34Z</time></trkpt><trkpt lat="45.54722401446615" lon="10.181513155811974"><ele>141.2</ele><time>2026-04-24T15:25:36Z</time></trkpt><trkpt lat="45.5471963126117" lon="10.181387136083131"><ele>141.39999999999998</ele><time>2026-04-24T15:25:37Z</time></trkpt><trkpt lat="45.54717289922518" lon="10.181239236835195"><ele>141.6</ele><time>2026-04-24T15:25:38Z</time></trkpt><trkpt lat="45.54715663185082" lon="10.181074927931299"><ele>141.79999999999998</ele><time>2026-04-24T15:25:39Z</time></trkpt><trkpt lat="45.547124805720394" lon="10.180901436018344"><ele>142.0</ele><time>2026-04-24T15:25:40Z</time></trkpt><trkpt lat="45.54709263550995" lon="10.18073191509062"><ele>141.75</ele><time>2026-04-24T15:25:41Z</time></trkpt><trkpt lat="45.54706462170313" lon="10.180561452200015"><ele>141.5</ele><time>2026-04-24T15:25:42Z</time></trkpt><trkpt lat="45.54703331675317" lon="10.180390943453025"><ele>141.25</ele><time>2026-04-24T15:25:43Z</time></trkpt><trkpt lat="45.54700188191616" lon="10.180213623731365"><ele>141.0</ele><time>2026-04-24T15:25:44Z</time></trkpt><trkpt lat="45.54697262328213" lon="10.180039711625774"><ele>140.5</ele><time>2026-04-24T15:25:45Z</time></trkpt><trkpt lat="45.54693588655104" lon="10.179866981639485"><ele>140.0</ele><time>2026-04-24T15:25:46Z</time></trkpt><trkpt lat="45.54689608905601" lon="10.179694744209119"><ele>139.5</ele><time>2026-04-24T15:25:47Z</time></trkpt><trkpt lat="45.5468628005564" lon="10.179515872737726"><ele>139.0</ele><time>2026-04-24T15:25:48Z</time></trkpt><trkpt lat="45.54682706926556" lon="10.179331227274224"><ele>139.0</ele><time>2026-04-24T15:25:49Z</time></trkpt><trkpt lat="45.546794171031394" lon="10.179132352328885"><ele>139.0</ele><time>2026-04-24T15:25:50Z</time></trkpt><trkpt lat="45.546777070581605" lon="10.178936888773036"><ele>139.0</ele><time>2026-04-24T15:25:51Z</time></trkpt><trkpt lat="45.546747888097634" lon="10.178772268080696"><ele>139.0</ele><time>2026-04-24T15:25:52Z</time></trkpt><trkpt lat="45.54671796173525" lon="10.178631846324295"><ele>138.8</ele><time>2026-04-24T15:25:53Z</time></trkpt><trkpt lat="45.54669713854999" lon="10.178501262363271"><ele>138.60000000000002</ele><time>2026-04-24T15:25:54Z</time></trkpt><trkpt lat="45.54667172443425" lon="10.178379655440338"><ele>138.4</ele><time>2026-04-24T15:25:55Z</time></trkpt><trkpt lat="45.54664549890583" lon="10.178248629452215"><ele>138.20000000000002</ele><time>2026-04-24T15:25:56Z</time></trkpt><trkpt lat="45.54662183425629" lon="10.178115212173466"><ele>138.0</ele><time>2026-04-24T15:25:57Z</time></trkpt><trkpt lat="45.54658524147842" lon="10.177958428118968"><ele>137.75</ele><time>2026-04-24T15:25:58Z</time></trkpt><trkpt lat="45.54654942054331" lon="10.177801812683576"><ele>137.5</ele><time>2026-04-24T15:25:59Z</time></trkpt><trkpt lat="45.54651468847172" lon="10.177638032266898"><ele>137.25</ele><time>2026-04-24T15:26:00Z</time></trkpt><trkpt lat="45.54649480439781" lon="10.177444535574457"><ele>137.0</ele><time>2026-04-24T15:26:01Z</time></trkpt><trkpt lat="45.54645612537371" lon="10.177226440668479"><ele>137.0</ele><time>2026-04-24T15:26:02Z</time></trkpt><trkpt lat="45.54642211604785" lon="10.176995662044476"><ele>137.0</ele><time>2026-04-24T15:26:03Z</time></trkpt><trkpt lat="45.5464040850475" lon="10.176757021962471"><ele>137.0</ele><time>2026-04-24T15:26:04Z</time></trkpt><trkpt lat="45.54637840727506" lon="10.176512944907454"><ele>136.66666666666666</ele><time>2026-04-24T15:26:05Z</time></trkpt><trkpt lat="45.54638036359968" lon="10.17625469396398"><ele>136.33333333333334</ele><time>2026-04-24T15:26:06Z</time></trkpt><trkpt lat="45.54638552782117" lon="10.175997049878967"><ele>136.0</ele><time>2026-04-24T15:26:07Z</time></trkpt><trkpt lat="45.546394108147936" lon="10.175768537307"><ele>135.66666666666669</ele><time>2026-04-24T15:26:08Z</time></trkpt><trkpt lat="45.54640986629439" lon="10.17556462791523"><ele>135.33333333333334</ele><time>2026-04-24T15:26:09Z</time></trkpt><trkpt lat="45.54644561990831" lon="10.175344024350577"><ele>135.0</ele><time>2026-04-24T15:26:10Z</time></trkpt><trkpt lat="45.5464549653656" lon="10.175122494036478"><ele>135.0</ele><time>2026-04-24T15:26:11Z</time></trkpt><trkpt lat="45.546478107968134" lon="10.17489634354357"><ele>135.0</ele><time>2026-04-24T15:26:12Z</time></trkpt><trkpt lat="45.546500461813736" lon="10.174664303158702"><ele>135.0</ele><time>2026-04-24T15:26:13Z</time></trkpt><trkpt lat="45.54652142280518" lon="10.17443706048332"><ele>135.33333333333334</ele><time>2026-04-24T15:26:14Z</time></trkpt><trkpt lat="45.546540588525616" lon="10.174212407908213"><ele>135.66666666666669</ele><time>2026-04-24T15:26:15Z</time></trkpt><trkpt lat="45.54656198594453" lon="10.173975230123366"><ele>136.0</ele><time>2026-04-24T15:26:16Z</time></trkpt><trkpt lat="45.546578074348275" lon="10.173764555856172"><ele>136.0</ele><time>2026-04-24T15:26:17Z</time></trkpt><trkpt lat="45.546594928023296" lon="10.17358131588374"><ele>136.0</ele><time>2026-04-24T15:26:18Z</time></trkpt><trkpt lat="45.54661415305778" lon="10.173414955096339"><ele>136.0</ele><time>2026-04-24T15:26:19Z</time></trkpt><trkpt lat="45.546634121511495" lon="10.173237627311204"><ele>136.0</ele><time>2026-04-24T15:26:20Z</time></trkpt><trkpt lat="45.54664727448706" lon="10.173022192049073"><ele>135.66666666666669</ele><time>2026-04-24T15:26:21Z</time></trkpt><trkpt lat="45.54668114283043" lon="10.17277179577358"><ele>135.33333333333334</ele><time>2026-04-24T15:26:22Z</time></trkpt><trkpt lat="45.54669434630828" lon="10.172507729533574"><ele>135.0</ele><time>2026-04-24T15:26:23Z</time></trkpt><trkpt lat="45.546724076787775" lon="10.172250098676583"><ele>134.33333333333334</ele><time>2026-04-24T15:26:24Z</time></trkpt><trkpt lat="45.54675217849229" lon="10.17199411886901"><ele>133.66666666666669</ele><time>2026-04-24T15:26:25Z</time></trkpt><trkpt lat="45.54678339368323" lon="10.171733393368715"><ele>133.0</ele><time>2026-04-24T15:26:26Z</time></trkpt><trkpt lat="45.54680983725966" lon="10.171461143401276"><ele>132.66666666666669</ele><time>2026-04-24T15:26:27Z</time></trkpt><trkpt lat="45.546834069633654" lon="10.171180645735635"><ele>132.33333333333334</ele><time>2026-04-24T15:26:28Z</time></trkpt><trkpt lat="45.546857831047674" lon="10.170912887757078"><ele>132.0</ele><time>2026-04-24T15:26:29Z</time></trkpt><trkpt lat="45.54687756421333" lon="10.170678870157424"><ele>132.0</ele><time>2026-04-24T15:26:30Z</time></trkpt><trkpt lat="45.54689823466907" lon="10.170466831506237"><ele>132.0</ele><time>2026-04-24T15:26:31Z</time></trkpt><trkpt lat="45.546917403092145" lon="10.170276017795166"><ele>132.0</ele><time>2026-04-24T15:26:32Z</time></trkpt><trkpt lat="45.54693365952809" lon="10.170093701509334"><ele>132.0</ele><time>2026-04-24T15:26:33Z</time></trkpt><trkpt lat="45.546949991776835" lon="10.169921137201749"><ele>132.25</ele><time>2026-04-24T15:26:34Z</time></trkpt><trkpt lat="45.54697413962424" lon="10.169764843018912"><ele>132.5</ele><time>2026-04-24T15:26:35Z</time></trkpt><trkpt lat="45.5470454855844" lon="10.169617279170247"><ele>132.75</ele><time>2026-04-24T15:26:36Z</time></trkpt><trkpt lat="45.54706039253724" lon="10.169458852938822"><ele>133.0</ele><time>2026-04-24T15:26:37Z</time></trkpt><trkpt lat="45.54706147095679" lon="10.169298383296717"><ele>132.33333333333334</ele><time>2026-04-24T15:26:38Z</time></trkpt><trkpt lat="45.547047779075314" lon="10.169068523865423"><ele>131.66666666666666</ele><time>2026-04-24T15:26:39Z</time></trkpt><trkpt lat="45.54706798950345" lon="10.168788677530365"><ele>131.0</ele><time>2026-04-24T15:26:40Z</time></trkpt><trkpt lat="45.547080508564406" lon="10.168507645886736"><ele>131.0</ele><time>2026-04-24T15:26:41Z</time></trkpt><trkpt lat="45.54710747028972" lon="10.168219788372163"><ele>131.0</ele><time>2026-04-24T15:26:42Z</time></trkpt><trkpt lat="45.54712536171822" lon="10.16792202415095"><ele>131.0</ele><time>2026-04-24T15:26:43Z</time></trkpt><trkpt lat="45.54714277412334" lon="10.167603445070256"><ele>132.0</ele><time>2026-04-24T15:26:44Z</time></trkpt><trkpt lat="45.547160982245614" lon="10.16729272523581"><ele>133.0</ele><time>2026-04-24T15:26:45Z</time></trkpt><trkpt lat="45.54717997298642" lon="10.16702555720882"><ele>134.0</ele><time>2026-04-24T15:26:46Z</time></trkpt><trkpt lat="45.54719655882097" lon="10.16678096905789"><ele>134.0</ele><time>2026-04-24T15:26:47Z</time></trkpt><trkpt lat="45.54721402719848" lon="10.166554380186948"><ele>134.0</ele><time>2026-04-24T15:26:48Z</time></trkpt><trkpt lat="45.54723546841648" lon="10.166346583597505"><ele>134.0</ele><time>2026-04-24T15:26:49Z</time></trkpt><trkpt lat="45.547251467447296" lon="10.166151911105688"><ele>134.0</ele><time>2026-04-24T15:26:50Z</time></trkpt><trkpt lat="45.547271238871154" lon="10.1659870632327"><ele>133.83333333333331</ele><time>2026-04-24T15:26:51Z</time></trkpt><trkpt lat="45.547293942254775" lon="10.165849060349256"><ele>133.66666666666666</ele><time>2026-04-24T15:26:52Z</time></trkpt><trkpt lat="45.54732134237548" lon="10.16575298610133"><ele>133.5</ele><time>2026-04-24T15:26:53Z</time></trkpt><trkpt lat="45.54736269202058" lon="10.165666632574737"><ele>133.33333333333334</ele><time>2026-04-24T15:26:54Z</time></trkpt><trkpt lat="45.54741020761189" lon="10.165569668226619"><ele>133.16666666666669</ele><time>2026-04-24T15:26:55Z</time></trkpt><trkpt lat="45.54743059630742" lon="10.1654433982062"><ele>133.0</ele><time>2026-04-24T15:26:56Z</time></trkpt><trkpt lat="45.54741798649429" lon="10.165271044881138"><ele>132.66666666666669</ele><time>2026-04-24T15:26:57Z</time></trkpt><trkpt lat="45.54740991836776" lon="10.165061882539545"><ele>132.33333333333334</ele><time>2026-04-24T15:26:58Z</time></trkpt><trkpt lat="45.5474175399199" lon="10.164819135105779"><ele>132.0</ele><time>2026-04-24T15:26:59Z</time></trkpt><trkpt lat="45.547444926226085" lon="10.164552801219909"><ele>131.33333333333334</ele><time>2026-04-24T15:27:00Z</time></trkpt><trkpt lat="45.54747176141693" lon="10.164277878275948"><ele>130.66666666666669</ele><time>2026-04-24T15:27:01Z</time></trkpt><trkpt lat="45.547498655921956" lon="10.164019085438104"><ele>130.0</ele><time>2026-04-24T15:27:02Z</time></trkpt><trkpt lat="45.5475200838526" lon="10.16374124042019"><ele>129.33333333333334</ele><time>2026-04-24T15:27:03Z</time></trkpt><trkpt lat="45.54754240281059" lon="10.163461435448976"><ele>128.66666666666666</ele><time>2026-04-24T15:27:04Z</time></trkpt><trkpt lat="45.54756344675217" lon="10.163194316607674"><ele>128.0</ele><time>2026-04-24T15:27:05Z</time></trkpt><trkpt lat="45.54758736881995" lon="10.16294386397565"><ele>128.0</ele><time>2026-04-24T15:27:06Z</time></trkpt><trkpt lat="45.5476115644956" lon="10.162704395216089"><ele>128.0</ele><time>2026-04-24T15:27:07Z</time></trkpt><trkpt lat="45.54763702382985" lon="10.162457208173652"><ele>128.0</ele><time>2026-04-24T15:27:08Z</time></trkpt><trkpt lat="45.54766019614909" lon="10.162190419186206"><ele>128.66666666666666</ele><time>2026-04-24T15:27:09Z</time></trkpt><trkpt lat="45.54768793554796" lon="10.161924676295412"><ele>129.33333333333334</ele><time>2026-04-24T15:27:10Z</time></trkpt><trkpt lat="45.54771394152258" lon="10.161660241735897"><ele>130.0</ele><time>2026-04-24T15:27:11Z</time></trkpt><trkpt lat="45.54774391437466" lon="10.16140824171663"><ele>130.0</ele><time>2026-04-24T15:27:12Z</time></trkpt><trkpt lat="45.54776328894464" lon="10.161178658952556"><ele>130.0</ele><time>2026-04-24T15:27:13Z</time></trkpt><trkpt lat="45.54777792678281" lon="10.160964400534395"><ele>130.0</ele><time>2026-04-24T15:27:14Z</time></trkpt><trkpt lat="45.547787767973794" lon="10.160776934119381"><ele>130.0</ele><time>2026-04-24T15:27:15Z</time></trkpt><trkpt lat="45.54781892761863" lon="10.160592726243783"><ele>129.66666666666669</ele><time>2026-04-24T15:27:16Z</time></trkpt><trkpt lat="45.54783986120447" lon="10.160375203379846"><ele>129.33333333333334</ele><time>2026-04-24T15:27:17Z</time></trkpt><trkpt lat="45.54786292738639" lon="10.160126950568486"><ele>129.0</ele><time>2026-04-24T15:27:18Z</time></trkpt><trkpt lat="45.5478839232634" lon="10.159884953074744"><ele>128.75</ele><time>2026-04-24T15:27:19Z</time></trkpt><trkpt lat="45.54790466498645" lon="10.159656668108136"><ele>128.5</ele><time>2026-04-24T15:27:20Z</time></trkpt><trkpt lat="45.54792354217647" lon="10.159449969411185"><ele>128.25</ele><time>2026-04-24T15:27:21Z</time></trkpt><trkpt lat="45.54794150826928" lon="10.159254448835307"><ele>128.0</ele><time>2026-04-24T15:27:22Z</time></trkpt><trkpt lat="45.547957258517926" lon="10.159083042897159"><ele>128.0</ele><time>2026-04-24T15:27:23Z</time></trkpt><trkpt lat="45.547957891368384" lon="10.158919799004174"><ele>128.0</ele><time>2026-04-24T15:27:24Z</time></trkpt><trkpt lat="45.5479775741019" lon="10.158748278767117"><ele>128.0</ele><time>2026-04-24T15:27:25Z</time></trkpt><trkpt lat="45.54799157954377" lon="10.158556628776816"><ele>128.0</ele><time>2026-04-24T15:27:26Z</time></trkpt><trkpt lat="45.5480067513172" lon="10.158372925348175"><ele>128.0</ele><time>2026-04-24T15:27:27Z</time></trkpt><trkpt lat="45.54802587041719" lon="10.158179422033381"><ele>128.0</ele><time>2026-04-24T15:27:28Z</time></trkpt><trkpt lat="45.548045246531615" lon="10.157987295691994"><ele>128.0</ele><time>2026-04-24T15:27:29Z</time></trkpt><trkpt lat="45.54806456285831" lon="10.157813342964387"><ele>128.0</ele><time>2026-04-24T15:27:30Z</time></trkpt><trkpt lat="45.54808410961715" lon="10.157665135192294"><ele>127.99999999999999</ele><time>2026-04-24T15:27:31Z</time></trkpt><trkpt lat="45.54809575258919" lon="10.157570138223809"><ele>128.0</ele><time>2026-04-24T15:27:32Z</time></trkpt><trkpt lat="45.5481050628845" lon="10.157412294812906"><ele>128.0</ele><time>2026-04-24T15:27:34Z</time></trkpt><trkpt lat="45.54811944264022" lon="10.157324146943754"><ele>128.0</ele><time>2026-04-24T15:27:36Z</time></trkpt><trkpt lat="45.54812152055913" lon="10.157205023639026"><ele>127.99999999999999</ele><time>2026-04-24T15:27:40Z</time></trkpt><trkpt lat="45.54815091191099" lon="10.157080418002405"><ele>128.0</ele><time>2026-04-24T15:27:42Z</time></trkpt><trkpt lat="45.54818287944883" lon="10.156949312956163"><ele>127.99999999999999</ele><time>2026-04-24T15:27:44Z</time></trkpt><trkpt lat="45.54820305503054" lon="10.156841544409863"><ele>128.0</ele><time>2026-04-24T15:27:45Z</time></trkpt><trkpt lat="45.54817574547675" lon="10.156731892687702"><ele>128.0</ele><time>2026-04-24T15:27:46Z</time></trkpt><trkpt lat="45.54817491865032" lon="10.156616479083587"><ele>128.0</ele><time>2026-04-24T15:27:47Z</time></trkpt><trkpt lat="45.548178536868114" lon="10.156521455321197"><ele>127.99999999999999</ele><time>2026-04-24T15:27:48Z</time></trkpt><trkpt lat="45.54818785266711" lon="10.156407570457402"><ele>128.0</ele><time>2026-04-24T15:27:49Z</time></trkpt><trkpt lat="45.54820098417815" lon="10.156267964206977"><ele>128.0</ele><time>2026-04-24T15:27:50Z</time></trkpt><trkpt lat="45.54821459153668" lon="10.156122052704381"><ele>128.0</ele><time>2026-04-24T15:27:51Z</time></trkpt><trkpt lat="45.5482335692244" lon="10.155967235870948"><ele>128.0</ele><time>2026-04-24T15:27:52Z</time></trkpt><trkpt lat="45.54825462148455" lon="10.155815061454343"><ele>128.0</ele><time>2026-04-24T15:27:53Z</time></trkpt><trkpt lat="45.548272739703094" lon="10.155668819422212"><ele>128.0</ele><time>2026-04-24T15:27:54Z</time></trkpt><trkpt lat="45.54828667754188" lon="10.155519545134648"><ele>128.0</ele><time>2026-04-24T15:27:55Z</time></trkpt><trkpt lat="45.54829613571992" lon="10.155377385120646"><ele>128.0</ele><time>2026-04-24T15:27:56Z</time></trkpt><trkpt lat="45.548309858187906" lon="10.15523950710845"><ele>128.0</ele><time>2026-04-24T15:27:57Z</time></trkpt><trkpt lat="45.54832629550702" lon="10.155099778183306"><ele>128.0</ele><time>2026-04-24T15:27:58Z</time></trkpt><trkpt lat="45.54833619082591" lon="10.154960138886352"><ele>128.0</ele><time>2026-04-24T15:27:59Z</time></trkpt><trkpt lat="45.548346288069574" lon="10.154818646711949"><ele>128.0</ele><time>2026-04-24T15:28:00Z</time></trkpt><trkpt lat="45.54835708247348" lon="10.154674399780411"><ele>128.0</ele><time>2026-04-24T15:28:01Z</time></trkpt><trkpt lat="45.548375612404996" lon="10.15453621942326"><ele>128.0</ele><time>2026-04-24T15:28:02Z</time></trkpt><trkpt lat="45.548381887730386" lon="10.154419194510375"><ele>128.0</ele><time>2026-04-24T15:28:03Z</time></trkpt><trkpt lat="45.54838668488179" lon="10.154311519473284"><ele>128.0</ele><time>2026-04-24T15:28:04Z</time></trkpt><trkpt lat="45.548400348447004" lon="10.154139536758237"><ele>127.99999999999999</ele><time>2026-04-24T15:28:06Z</time></trkpt><trkpt lat="45.548412347008735" lon="10.15404987021023"><ele>128.0</ele><time>2026-04-24T15:28:07Z</time></trkpt><trkpt lat="45.54842031932731" lon="10.153941801583926"><ele>128.0</ele><time>2026-04-24T15:28:08Z</time></trkpt><trkpt lat="45.548430596560905" lon="10.153828057853516"><ele>128.0</ele><time>2026-04-24T15:28:09Z</time></trkpt><trkpt lat="45.548447877547204" lon="10.153717523563015"><ele>127.99999999999999</ele><time>2026-04-24T15:28:10Z</time></trkpt><trkpt lat="45.548455569872935" lon="10.153607652191385"><ele>128.0</ele><time>2026-04-24T15:28:11Z</time></trkpt><trkpt lat="45.54846665455833" lon="10.15348627790301"><ele>127.80000000000001</ele><time>2026-04-24T15:28:12Z</time></trkpt><trkpt lat="45.548480996079846" lon="10.153338853018113"><ele>127.60000000000001</ele><time>2026-04-24T15:28:13Z</time></trkpt><trkpt lat="45.548503728864794" lon="10.153178677394965"><ele>127.39999999999999</ele><time>2026-04-24T15:28:14Z</time></trkpt><trkpt lat="45.54851534693146" lon="10.153027055876619"><ele>127.19999999999999</ele><time>2026-04-24T15:28:15Z</time></trkpt><trkpt lat="45.54852825014623" lon="10.152898711771089"><ele>127.0</ele><time>2026-04-24T15:28:16Z</time></trkpt><trkpt lat="45.54854342200655" lon="10.152759597789517"><ele>127.0</ele><time>2026-04-24T15:28:17Z</time></trkpt><trkpt lat="45.54856886930378" lon="10.152610898234123"><ele>126.99999999999999</ele><time>2026-04-24T15:28:18Z</time></trkpt><trkpt lat="45.548598651966046" lon="10.15250227195567"><ele>126.99999999999999</ele><time>2026-04-24T15:28:19Z</time></trkpt><trkpt lat="45.54864556506824" lon="10.152367350664672"><ele>127.0</ele><time>2026-04-24T15:28:21Z</time></trkpt><trkpt lat="45.54869980383605" lon="10.152231711618908"><ele>127.0</ele><time>2026-04-24T15:28:23Z</time></trkpt><trkpt lat="45.54877178043745" lon="10.1521558706336"><ele>126.75</ele><time>2026-04-24T15:28:24Z</time></trkpt><trkpt lat="45.548863908421836" lon="10.152075077689139"><ele>126.5</ele><time>2026-04-24T15:28:25Z</time></trkpt><trkpt lat="45.54895745826316" lon="10.15197172251872"><ele>126.25</ele><time>2026-04-24T15:28:26Z</time></trkpt><trkpt lat="45.54905438155925" lon="10.15184779947683"><ele>126.0</ele><time>2026-04-24T15:28:27Z</time></trkpt><trkpt lat="45.54914310738348" lon="10.151726320710118"><ele>126.0</ele><time>2026-04-24T15:28:28Z</time></trkpt><trkpt lat="45.54922182941957" lon="10.151632565861323"><ele>126.0</ele><time>2026-04-24T15:28:29Z</time></trkpt><trkpt lat="45.54929096507206" lon="10.151550430450587"><ele>126.0</ele><time>2026-04-24T15:28:30Z</time></trkpt><trkpt lat="45.549362803179626" lon="10.15145682601962"><ele>126.0</ele><time>2026-04-24T15:28:31Z</time></trkpt><trkpt lat="45.54943675664577" lon="10.151363010835958"><ele>126.0</ele><time>2026-04-24T15:28:32Z</time></trkpt><trkpt lat="45.549513965773656" lon="10.151264429534322"><ele>126.25</ele><time>2026-04-24T15:28:33Z</time></trkpt><trkpt lat="45.549591161136625" lon="10.151161781247156"><ele>126.5</ele><time>2026-04-24T15:28:34Z</time></trkpt><trkpt lat="45.54967469758727" lon="10.151054347014748"><ele>126.75</ele><time>2026-04-24T15:28:35Z</time></trkpt><trkpt lat="45.549766446266844" lon="10.150936362135631"><ele>127.0</ele><time>2026-04-24T15:28:36Z</time></trkpt><trkpt lat="45.5498539661184" lon="10.150825766863662"><ele>127.0</ele><time>2026-04-24T15:28:37Z</time></trkpt><trkpt lat="45.54994893315051" lon="10.150710088892604"><ele>127.0</ele><time>2026-04-24T15:28:38Z</time></trkpt><trkpt lat="45.550053144725304" lon="10.150575945842995"><ele>127.0</ele><time>2026-04-24T15:28:39Z</time></trkpt><trkpt lat="45.55015670031624" lon="10.15045055292784"><ele>127.0</ele><time>2026-04-24T15:28:40Z</time></trkpt><trkpt lat="45.55025391039988" lon="10.150325845518093"><ele>127.0</ele><time>2026-04-24T15:28:41Z</time></trkpt><trkpt lat="45.55035831777465" lon="10.150192946837384"><ele>127.0</ele><time>2026-04-24T15:28:42Z</time></trkpt><trkpt lat="45.55046185926558" lon="10.150050857379796"><ele>127.0</ele><time>2026-04-24T15:28:43Z</time></trkpt><trkpt lat="45.55056120246459" lon="10.149898285809497"><ele>127.0</ele><time>2026-04-24T15:28:44Z</time></trkpt><trkpt lat="45.55066257800087" lon="10.149736140766883"><ele>126.5</ele><time>2026-04-24T15:28:45Z</time></trkpt><trkpt lat="45.55076106638206" lon="10.149586861666474"><ele>126.0</ele><time>2026-04-24T15:28:46Z</time></trkpt><trkpt lat="45.550851218519234" lon="10.149444417880627"><ele>125.5</ele><time>2026-04-24T15:28:47Z</time></trkpt><trkpt lat="45.5509390111565" lon="10.149299202576147"><ele>125.0</ele><time>2026-04-24T15:28:48Z</time></trkpt><trkpt lat="45.55102063756689" lon="10.149162242910474"><ele>125.0</ele><time>2026-04-24T15:28:49Z</time></trkpt><trkpt lat="45.55110355366583" lon="10.149024442066613"><ele>125.0</ele><time>2026-04-24T15:28:50Z</time></trkpt><trkpt lat="45.551184359098215" lon="10.148885363862206"><ele>125.0</ele><time>2026-04-24T15:28:51Z</time></trkpt><trkpt lat="45.551253184137146" lon="10.14877241099982"><ele>125.0</ele><time>2026-04-24T15:28:52Z</time></trkpt><trkpt lat="45.55130895311473" lon="10.148682906786538"><ele>125.0</ele><time>2026-04-24T15:28:53Z</time></trkpt><trkpt lat="45.55141227020423" lon="10.148595889237296"><ele>124.99999999999999</ele><time>2026-04-24T15:28:55Z</time></trkpt><trkpt lat="45.55149215427348" lon="10.148583496011867"><ele>125.0</ele><time>2026-04-24T15:28:56Z</time></trkpt><trkpt lat="45.5515618549494" lon="10.148581335989203"><ele>125.0</ele><time>2026-04-24T15:28:57Z</time></trkpt><trkpt lat="45.551628049496735" lon="10.14855094207127"><ele>125.0</ele><time>2026-04-24T15:28:58Z</time></trkpt><trkpt lat="45.55169164893997" lon="10.148450293835575"><ele>124.99999999999999</ele><time>2026-04-24T15:28:59Z</time></trkpt><trkpt lat="45.55172280753285" lon="10.148319934437325"><ele>125.0</ele><time>2026-04-24T15:29:00Z</time></trkpt><trkpt lat="45.551715662358426" lon="10.148179580150847"><ele>124.75</ele><time>2026-04-24T15:29:01Z</time></trkpt><trkpt lat="45.55171664960791" lon="10.148045919595823"><ele>124.5</ele><time>2026-04-24T15:29:02Z</time></trkpt><trkpt lat="45.55176062985384" lon="10.147895836489413"><ele>124.25</ele><time>2026-04-24T15:29:03Z</time></trkpt><trkpt lat="45.55187969140054" lon="10.147730159685556"><ele>124.0</ele><time>2026-04-24T15:29:04Z</time></trkpt><trkpt lat="45.55202933739036" lon="10.147481023182403"><ele>125.66666666666667</ele><time>2026-04-24T15:29:05Z</time></trkpt><trkpt lat="45.55215820506717" lon="10.147260795386885"><ele>127.33333333333334</ele><time>2026-04-24T15:29:06Z</time></trkpt><trkpt lat="45.552277459478695" lon="10.147067417015768"><ele>129.0</ele><time>2026-04-24T15:29:07Z</time></trkpt><trkpt lat="45.55239924230332" lon="10.14682697230702"><ele>129.0</ele><time>2026-04-24T15:29:08Z</time></trkpt><trkpt lat="45.55255762024428" lon="10.146542630443927"><ele>129.0</ele><time>2026-04-24T15:29:09Z</time></trkpt><trkpt lat="45.55274870466812" lon="10.146262221052433"><ele>129.0</ele><time>2026-04-24T15:29:10Z</time></trkpt><trkpt lat="45.55292712773089" lon="10.145966325095152"><ele>129.0</ele><time>2026-04-24T15:29:11Z</time></trkpt><trkpt lat="45.55308212611292" lon="10.145688153814307"><ele>129.0</ele><time>2026-04-24T15:29:12Z</time></trkpt><trkpt lat="45.55321939672085" lon="10.145442770091417"><ele>129.0</ele><time>2026-04-24T15:29:13Z</time></trkpt><trkpt lat="45.553349263413" lon="10.145225634698491"><ele>129.0</ele><time>2026-04-24T15:29:14Z</time></trkpt><trkpt lat="45.5534702483547" lon="10.145020166872598"><ele>128.75</ele><time>2026-04-24T15:29:15Z</time></trkpt><trkpt lat="45.553562960234565" lon="10.144866151758292"><ele>128.5</ele><time>2026-04-24T15:29:16Z</time></trkpt><trkpt lat="45.5536198782661" lon="10.144773772490067"><ele>128.25</ele><time>2026-04-24T15:29:17Z</time></trkpt><trkpt lat="45.553694172271655" lon="10.144631993282106"><ele>128.0</ele><time>2026-04-24T15:29:18Z</time></trkpt><trkpt lat="45.55375069194477" lon="10.144513036937749"><ele>127.80000000000001</ele><time>2026-04-24T15:29:19Z</time></trkpt><trkpt lat="45.55379721489836" lon="10.144390791843051"><ele>127.60000000000001</ele><time>2026-04-24T15:29:20Z</time></trkpt><trkpt lat="45.55383359167758" lon="10.14428249124027"><ele>127.39999999999999</ele><time>2026-04-24T15:29:21Z</time></trkpt><trkpt lat="45.553883175001566" lon="10.144158073456484"><ele>127.19999999999999</ele><time>2026-04-24T15:29:23Z</time></trkpt><trkpt lat="45.55395260762559" lon="10.144017790087709"><ele>127.0</ele><time>2026-04-24T15:29:25Z</time></trkpt><trkpt lat="45.55400248065323" lon="10.143948252614862"><ele>127.39999999999999</ele><time>2026-04-24T15:29:26Z</time></trkpt><trkpt lat="45.55406044437776" lon="10.143876145534698"><ele>127.79999999999998</ele><time>2026-04-24T15:29:27Z</time></trkpt><trkpt lat="45.55410514360374" lon="10.1437806921048"><ele>128.2</ele><time>2026-04-24T15:29:28Z</time></trkpt><trkpt lat="45.55411072934208" lon="10.143651330857905"><ele>128.6</ele><time>2026-04-24T15:29:29Z</time></trkpt><trkpt lat="45.55409319931424" lon="10.143523400009647"><ele>129.0</ele><time>2026-04-24T15:29:30Z</time></trkpt><trkpt lat="45.55403051435475" lon="10.143385889560507"><ele>129.0</ele><time>2026-04-24T15:29:31Z</time></trkpt><trkpt lat="45.55395358214964" lon="10.143281522547062"><ele>129.0</ele><time>2026-04-24T15:29:32Z</time></trkpt><trkpt lat="45.55388617626558" lon="10.143210044293713"><ele>129.0</ele><time>2026-04-24T15:29:33Z</time></trkpt><trkpt lat="45.553847833768494" lon="10.143086419915655"><ele>129.0</ele><time>2026-04-24T15:29:35Z</time></trkpt><trkpt lat="45.55388834230539" lon="10.143016920878981"><ele>129.0</ele><time>2026-04-24T15:29:36Z</time></trkpt><trkpt lat="45.553944270088095" lon="10.142931316944521"><ele>129.0</ele><time>2026-04-24T15:29:37Z</time></trkpt><trkpt lat="45.55410191682207" lon="10.143005079601238"><ele>129.25</ele><time>2026-04-24T15:29:38Z</time></trkpt><trkpt lat="45.554218445403336" lon="10.143027232202272"><ele>129.5</ele><time>2026-04-24T15:29:39Z</time></trkpt><trkpt lat="45.55434197186582" lon="10.142991654940703"><ele>129.75</ele><time>2026-04-24T15:29:40Z</time></trkpt><trkpt lat="45.55447092363071" lon="10.142912276713332"><ele>130.0</ele><time>2026-04-24T15:29:41Z</time></trkpt><trkpt lat="45.55460126440896" lon="10.142770780456752"><ele>130.0</ele><time>2026-04-24T15:29:42Z</time></trkpt><trkpt lat="45.55471327083338" lon="10.142573541641477"><ele>130.0</ele><time>2026-04-24T15:29:43Z</time></trkpt><trkpt lat="45.5548215650051" lon="10.142303807332201"><ele>130.0</ele><time>2026-04-24T15:29:44Z</time></trkpt><trkpt lat="45.554937942502306" lon="10.141973090405369"><ele>130.5</ele><time>2026-04-24T15:29:45Z</time></trkpt><trkpt lat="45.55508147449259" lon="10.14159496604933"><ele>131.0</ele><time>2026-04-24T15:29:46Z</time></trkpt><trkpt lat="45.555247690162645" lon="10.14124186445945"><ele>131.0</ele><time>2026-04-24T15:29:47Z</time></trkpt><trkpt lat="45.5553792815376" lon="10.14092116305282"><ele>131.0</ele><time>2026-04-24T15:29:48Z</time></trkpt><trkpt lat="45.55549322605309" lon="10.14064309090191"><ele>131.0</ele><time>2026-04-24T15:29:49Z</time></trkpt><trkpt lat="45.55560027442803" lon="10.14038178592373"><ele>131.0</ele><time>2026-04-24T15:29:50Z</time></trkpt><trkpt lat="45.55568443010656" lon="10.140174968821144"><ele>131.0</ele><time>2026-04-24T15:29:51Z</time></trkpt><trkpt lat="45.55576161745401" lon="10.139985276866692"><ele>130.75</ele><time>2026-04-24T15:29:52Z</time></trkpt><trkpt lat="45.55583473109537" lon="10.139811795617756"><ele>130.5</ele><time>2026-04-24T15:29:53Z</time></trkpt><trkpt lat="45.55591193668335" lon="10.139642405042292"><ele>130.25</ele><time>2026-04-24T15:29:54Z</time></trkpt><trkpt lat="45.555979621767705" lon="10.1394885241952"><ele>130.0</ele><time>2026-04-24T15:29:55Z</time></trkpt><trkpt lat="45.556034650336976" lon="10.139357943723837"><ele>130.0</ele><time>2026-04-24T15:29:56Z</time></trkpt><trkpt lat="45.55608245957054" lon="10.139244494436264"><ele>130.0</ele><time>2026-04-24T15:29:57Z</time></trkpt><trkpt lat="45.55611973970014" lon="10.139156030251828"><ele>130.0</ele><time>2026-04-24T15:29:58Z</time></trkpt></trkseg></trk></gpx>